createdAt,value
2017-05-13T00:01:57.978Z,76.861
2017-05-13T00:04:50.804Z,76.701
2017-05-13T00:07:45.216Z,76.751
2017-05-13T00:10:40.017Z,76.824
2017-05-13T00:13:34.504Z,76.982
2017-05-13T00:16:29.080Z,77.044
2017-05-13T00:19:23.599Z,76.900
2017-05-13T00:22:18.231Z,77.023
2017-05-13T00:25:12.842Z,77.195
2017-05-13T00:28:07.458Z,77.055
2017-05-13T00:31:01.908Z,77.043
2017-05-13T00:33:56.405Z,77.198
2017-05-13T00:36:50.880Z,77.339
2017-05-13T00:39:45.435Z,77.508
2017-05-13T00:42:39.913Z,77.511
2017-05-13T00:45:34.398Z,77.697
2017-05-13T00:48:28.953Z,77.874
2017-05-13T00:51:23.400Z,78.016
2017-05-13T00:54:17.956Z,77.946
2017-05-13T00:57:12.445Z,78.037
2017-05-13T01:00:06.949Z,78.038
2017-05-13T01:03:01.416Z,78.368
2017-05-13T01:05:55.945Z,78.340
2017-05-13T01:08:50.413Z,78.543
2017-05-13T01:11:44.870Z,78.426
2017-05-13T01:14:39.331Z,78.545
2017-05-13T01:17:33.807Z,78.461
2017-05-13T01:20:28.331Z,78.583
2017-05-13T01:23:22.828Z,78.756
2017-05-13T01:26:17.255Z,78.935
2017-05-13T01:29:11.688Z,79.085
2017-05-13T01:32:06.248Z,78.835
2017-05-13T01:35:00.692Z,78.899
2017-05-13T01:37:55.236Z,78.965
2017-05-13T01:40:49.575Z,79.237
2017-05-13T01:43:43.970Z,79.546
2017-05-13T01:46:38.530Z,79.464
2017-05-13T01:49:32.896Z,79.705
2017-05-13T01:52:27.268Z,79.363
2017-05-13T01:55:21.793Z,79.418
2017-05-13T01:58:16.177Z,79.518
2017-05-13T02:01:10.674Z,79.399
2017-05-13T02:04:05.068Z,79.277
2017-05-13T02:06:59.550Z,79.174
2017-05-13T02:09:53.842Z,79.276
2017-05-13T02:12:48.284Z,79.150
2017-05-13T02:15:42.883Z,78.871
2017-05-13T02:18:37.282Z,78.904
2017-05-13T02:21:31.743Z,79.083
2017-05-13T02:24:26.138Z,78.852
2017-05-13T02:27:20.537Z,78.688
2017-05-13T02:30:14.992Z,78.535
2017-05-13T02:33:09.500Z,78.245
2017-05-13T02:36:03.811Z,78.309
2017-05-13T02:38:58.145Z,78.417
2017-05-13T02:41:52.591Z,78.274
2017-05-13T02:44:47.235Z,78.102
2017-05-13T02:47:41.592Z,77.552
2017-05-13T02:50:35.888Z,77.538
2017-05-13T02:53:30.310Z,77.544
2017-05-13T02:56:24.666Z,77.234
2017-05-13T02:59:19.006Z,77.217
2017-05-13T03:02:13.405Z,77.064
2017-05-13T03:05:07.779Z,76.842
2017-05-13T03:08:02.175Z,76.750
2017-05-13T03:10:56.612Z,77.029
2017-05-13T03:13:50.897Z,76.658
2017-05-13T03:16:45.326Z,76.653
2017-05-13T03:19:39.705Z,76.675
2017-05-13T03:22:34.092Z,76.764
2017-05-13T03:25:28.401Z,76.686
2017-05-13T03:28:22.812Z,76.328
2017-05-13T03:31:17.166Z,76.147
2017-05-13T03:34:11.545Z,76.075
2017-05-13T03:37:05.808Z,76.300
2017-05-13T03:40:00.133Z,75.989
2017-05-13T03:42:54.856Z,75.682
2017-05-13T03:45:49.892Z,75.904
2017-05-13T03:48:44.229Z,75.720
2017-05-13T03:51:38.627Z,75.561
2017-05-13T03:54:32.979Z,75.526
2017-05-13T03:57:27.372Z,75.403
2017-05-13T04:00:21.759Z,75.466
2017-05-13T04:03:17.724Z,75.334
2017-05-13T04:06:10.402Z,75.492
2017-05-13T04:09:04.807Z,75.321
2017-05-13T04:11:59.113Z,75.525
2017-05-13T04:14:53.527Z,75.199
2017-05-13T04:17:47.915Z,75.442
2017-05-13T04:20:42.259Z,75.307
2017-05-13T04:23:36.657Z,75.520
2017-05-13T04:26:31.016Z,75.406
2017-05-13T04:29:25.427Z,75.405
2017-05-13T04:32:19.898Z,75.500
2017-05-13T04:35:14.239Z,75.532
2017-05-13T04:38:08.641Z,75.715
2017-05-13T04:41:02.983Z,76.103
2017-05-13T04:43:57.287Z,76.457
2017-05-13T04:46:51.761Z,76.708
2017-05-13T04:49:46.232Z,76.958
2017-05-13T04:52:40.507Z,77.093
2017-05-13T04:55:35.055Z,77.170
2017-05-13T04:58:29.348Z,77.394
2017-05-13T05:01:23.842Z,77.561
2017-05-13T05:04:18.253Z,77.288
2017-05-13T05:07:12.661Z,77.410
2017-05-13T05:10:06.998Z,77.247
2017-05-13T05:13:01.464Z,77.437
2017-05-13T05:15:55.700Z,77.643
2017-05-13T05:18:51.865Z,77.755
2017-05-13T05:21:44.551Z,77.669
2017-05-13T05:24:38.935Z,77.462
2017-05-13T05:27:33.421Z,78.028
2017-05-13T05:30:27.877Z,77.604
2017-05-13T05:33:22.288Z,77.291
2017-05-13T05:36:16.813Z,77.717
2017-05-13T05:39:11.291Z,77.375
2017-05-13T05:42:05.589Z,77.446
2017-05-13T05:45:00.033Z,78.067
2017-05-13T05:47:54.419Z,78.352
2017-05-13T05:50:48.949Z,78.378
2017-05-13T05:53:43.335Z,78.636
2017-05-13T05:56:37.736Z,78.657
2017-05-13T05:59:32.243Z,79.500
2017-05-13T06:02:26.687Z,79.651
2017-05-13T06:05:21.112Z,79.532
2017-05-13T06:08:15.485Z,79.662
2017-05-13T06:11:09.874Z,80.148
2017-05-13T06:14:04.235Z,80.232
2017-05-13T06:17:00.467Z,80.121
2017-05-13T06:19:53.116Z,80.159
2017-05-13T06:22:47.420Z,79.372
2017-05-13T06:25:41.847Z,79.449
2017-05-13T06:28:36.265Z,79.621
2017-05-13T06:31:30.623Z,79.526
2017-05-13T06:34:24.999Z,79.661
2017-05-13T06:37:19.516Z,79.658
2017-05-13T06:40:13.941Z,80.041
2017-05-13T06:43:08.425Z,80.430
2017-05-13T06:46:02.876Z,79.996
2017-05-13T06:48:57.316Z,80.013
2017-05-13T06:51:51.797Z,79.969
2017-05-13T06:54:46.300Z,79.705
2017-05-13T06:57:40.696Z,79.870
2017-05-13T07:00:37.098Z,79.541
2017-05-13T07:03:29.809Z,78.397
2017-05-13T07:06:24.205Z,78.580
2017-05-13T07:09:18.631Z,78.291
2017-05-13T07:12:13.048Z,78.480
2017-05-13T07:15:07.508Z,78.648
2017-05-13T07:18:01.877Z,78.395
2017-05-13T07:20:56.469Z,78.397
2017-05-13T07:23:50.978Z,78.622
2017-05-13T07:26:45.441Z,78.753
2017-05-13T07:29:39.888Z,78.868
2017-05-13T07:32:36.208Z,78.471
2017-05-13T07:35:28.926Z,78.532
2017-05-13T07:38:23.486Z,78.040
2017-05-13T07:41:18.030Z,77.978
2017-05-13T07:44:12.373Z,77.749
2017-05-13T07:47:07.046Z,77.144
2017-05-13T07:50:01.616Z,77.838
2017-05-13T07:52:56.114Z,78.015
2017-05-13T07:55:50.514Z,77.559
2017-05-13T07:58:44.813Z,78.667
2017-05-13T08:01:39.402Z,78.414
2017-05-13T08:04:34.059Z,78.454
2017-05-13T08:07:30.326Z,78.795
2017-05-13T08:10:23.105Z,78.180
2017-05-13T08:13:17.517Z,78.481
2017-05-13T08:16:11.876Z,78.091
2017-05-13T08:19:06.403Z,78.557
2017-05-13T08:22:00.848Z,78.293
2017-05-13T08:24:55.351Z,78.196
2017-05-13T08:27:49.782Z,78.262
2017-05-13T08:30:44.222Z,78.242
2017-05-13T08:33:38.796Z,78.233
2017-05-13T08:36:33.340Z,78.396
2017-05-13T08:39:27.800Z,78.268
2017-05-13T08:42:22.299Z,78.389
2017-05-13T08:45:17.104Z,78.082
2017-05-13T08:48:11.225Z,77.895
2017-05-13T08:51:05.867Z,77.888
2017-05-13T08:54:00.474Z,77.475
2017-05-13T08:56:54.883Z,77.783
2017-05-13T08:59:49.364Z,76.866
2017-05-13T09:02:43.960Z,77.029
2017-05-13T09:05:38.539Z,78.167
2017-05-13T09:08:33.140Z,77.938
2017-05-13T09:11:27.606Z,78.627
2017-05-13T09:14:22.091Z,78.333
2017-05-13T09:17:16.594Z,79.845
2017-05-13T09:20:11.037Z,79.305
2017-05-13T09:23:05.755Z,79.735
2017-05-13T09:26:00.205Z,80.578
2017-05-13T09:28:54.588Z,80.526
2017-05-13T09:31:49.133Z,80.445
2017-05-13T09:34:43.574Z,81.166
2017-05-13T09:37:38.082Z,81.916
2017-05-13T09:40:32.526Z,81.654
2017-05-13T09:43:27.163Z,81.951
2017-05-13T09:46:21.773Z,81.526
2017-05-13T09:49:16.320Z,81.434
2017-05-13T09:52:10.702Z,81.937
2017-05-13T09:55:05.408Z,81.615
2017-05-13T09:57:59.878Z,82.857
2017-05-13T10:00:54.335Z,81.759
2017-05-13T10:03:48.783Z,82.513
2017-05-13T10:06:43.417Z,81.888
2017-05-13T10:09:37.855Z,81.622
2017-05-13T10:12:32.265Z,81.798
2017-05-13T10:15:27.169Z,81.483
2017-05-13T10:18:21.640Z,81.667
2017-05-13T10:21:16.310Z,81.156
2017-05-13T10:24:10.843Z,80.983
2017-05-13T10:27:05.464Z,80.769
2017-05-13T10:29:59.982Z,80.572
2017-05-13T10:32:54.464Z,80.359
2017-05-13T10:35:49.129Z,79.753
2017-05-13T10:38:43.482Z,79.493
2017-05-13T10:41:37.992Z,79.665
2017-05-13T10:44:32.595Z,79.485
2017-05-13T10:47:27.322Z,78.513
2017-05-13T10:50:23.630Z,78.085
2017-05-13T10:53:16.334Z,77.256
2017-05-13T10:56:10.852Z,77.328
2017-05-13T10:59:05.468Z,77.024
2017-05-13T11:02:00.003Z,76.299
2017-05-13T11:04:54.522Z,75.967
2017-05-13T11:07:49.108Z,76.255
2017-05-13T11:10:43.604Z,75.982
2017-05-13T11:13:38.123Z,76.335
2017-05-13T11:16:32.667Z,77.164
2017-05-13T11:19:27.140Z,77.410
2017-05-13T11:22:21.610Z,77.603
2017-05-13T11:25:16.131Z,77.581
2017-05-13T11:28:10.921Z,77.360
2017-05-13T11:31:05.347Z,77.331
2017-05-13T11:33:59.973Z,76.778
2017-05-13T11:36:54.656Z,76.412
2017-05-13T11:39:49.107Z,75.651
2017-05-13T11:42:43.681Z,74.522
2017-05-13T11:45:38.222Z,74.561
2017-05-13T11:48:32.877Z,74.998
2017-05-13T11:51:27.419Z,74.929
2017-05-13T11:54:21.958Z,73.625
2017-05-13T11:57:16.723Z,73.762
2017-05-13T12:00:11.519Z,73.333
2017-05-13T12:03:06.097Z,72.755
2017-05-13T12:06:00.723Z,73.145
2017-05-13T12:08:55.395Z,72.689
2017-05-13T12:11:50.058Z,72.024
2017-05-13T12:14:44.613Z,72.827
2017-05-13T12:17:39.276Z,72.811
2017-05-13T12:20:33.939Z,71.388
2017-05-13T12:23:28.583Z,70.332
2017-05-13T12:26:23.202Z,71.207
2017-05-13T12:29:17.834Z,69.685
2017-05-13T12:32:12.510Z,68.850
2017-05-13T12:35:07.202Z,68.880
2017-05-13T12:38:01.907Z,67.489
2017-05-13T12:40:56.548Z,68.074
2017-05-13T12:43:51.089Z,65.644
2017-05-13T12:46:45.911Z,66.316
2017-05-13T12:49:42.202Z,66.333
2017-05-13T12:52:35.207Z,66.257
2017-05-13T12:55:29.926Z,67.410
2017-05-13T12:58:24.554Z,65.923
2017-05-13T13:01:19.333Z,65.627
2017-05-13T13:04:15.823Z,64.560
2017-05-13T13:07:08.858Z,65.155
2017-05-13T13:10:03.682Z,64.758
2017-05-13T13:13:00.214Z,64.699
2017-05-13T13:15:53.265Z,62.711
2017-05-13T13:18:48.057Z,62.454
2017-05-13T13:21:42.796Z,62.916
2017-05-13T13:24:37.537Z,61.254
2017-05-13T13:27:32.282Z,62.595
2017-05-13T13:30:27.001Z,62.616
2017-05-13T13:33:21.714Z,62.774
2017-05-13T13:36:16.519Z,62.111
2017-05-13T13:39:11.304Z,63.341
2017-05-13T13:42:06.070Z,61.577
2017-05-13T13:45:00.936Z,61.378
2017-05-13T13:47:55.735Z,61.123
2017-05-13T13:50:50.413Z,61.735
2017-05-13T13:53:45.375Z,60.360
2017-05-13T13:56:40.223Z,60.738
2017-05-13T13:59:34.981Z,60.108
2017-05-13T14:02:29.657Z,61.009
2017-05-13T14:05:24.533Z,61.072
2017-05-13T14:08:19.313Z,62.036
2017-05-13T14:11:14.182Z,62.541
2017-05-13T14:14:08.881Z,61.875
2017-05-13T14:17:03.594Z,61.460
2017-05-13T14:19:58.383Z,61.134
2017-05-13T14:22:52.119Z,62.614
2017-05-13T14:25:46.836Z,64.904
2017-05-13T14:28:41.592Z,64.444
2017-05-13T14:31:36.533Z,65.042
2017-05-13T14:34:31.272Z,63.663
2017-05-13T14:37:26.104Z,65.215
2017-05-13T14:40:20.962Z,66.240
2017-05-13T14:43:15.633Z,65.511
2017-05-13T14:46:10.354Z,66.913
2017-05-13T14:49:05.020Z,67.175
2017-05-13T14:51:59.759Z,67.152
2017-05-13T14:54:54.464Z,67.202
2017-05-13T14:57:49.304Z,68.290
2017-05-13T15:00:44.098Z,67.377
2017-05-13T15:03:38.795Z,68.231
2017-05-13T15:06:33.370Z,67.744
2017-05-13T15:09:28.108Z,68.790
2017-05-13T15:12:22.781Z,70.094
2017-05-13T15:15:17.399Z,69.494
2017-05-13T15:18:12.132Z,68.655
2017-05-13T15:21:06.759Z,69.651
2017-05-13T15:24:01.297Z,69.266
2017-05-13T15:26:55.992Z,70.001
2017-05-13T15:29:50.678Z,70.139
2017-05-13T15:32:45.276Z,70.628
2017-05-13T15:35:39.877Z,70.806
2017-05-13T15:38:34.528Z,70.297
2017-05-13T15:41:29.307Z,70.986
2017-05-13T15:44:23.970Z,70.883
2017-05-13T15:47:18.645Z,70.569
2017-05-13T15:50:13.327Z,71.232
2017-05-13T15:53:07.974Z,71.918
2017-05-13T15:56:02.657Z,70.854
2017-05-13T15:58:57.318Z,71.380
2017-05-13T16:01:52.034Z,71.328
2017-05-13T16:04:46.635Z,71.566
2017-05-13T16:07:41.258Z,70.862
2017-05-13T16:10:35.928Z,71.247
2017-05-13T16:13:30.651Z,71.381
2017-05-13T16:16:25.350Z,71.504
2017-05-13T16:19:20.002Z,71.349
2017-05-13T16:22:14.767Z,71.021
2017-05-13T16:25:09.452Z,70.806
2017-05-13T16:28:04.027Z,70.495
2017-05-13T16:30:58.722Z,69.989
2017-05-13T16:33:55.342Z,71.042
2017-05-13T16:36:49.960Z,70.986
2017-05-13T16:39:42.888Z,71.523
2017-05-13T16:42:37.591Z,70.373
2017-05-13T16:45:32.238Z,70.885
2017-05-13T16:48:26.995Z,70.905
2017-05-13T16:51:21.429Z,70.899
2017-05-13T16:54:16.078Z,70.667
2017-05-13T16:57:10.861Z,70.281
2017-05-13T17:00:05.567Z,70.480
2017-05-13T17:03:00.277Z,71.219
2017-05-13T17:05:54.963Z,71.477
2017-05-13T17:08:49.555Z,71.241
2017-05-13T17:11:44.150Z,70.114
2017-05-13T17:14:38.807Z,69.922
2017-05-13T17:17:33.504Z,70.784
2017-05-13T17:20:28.130Z,70.197
2017-05-13T17:23:22.756Z,70.370
2017-05-13T17:26:17.346Z,70.686
2017-05-13T17:29:11.965Z,71.392
2017-05-13T17:32:06.613Z,72.000
2017-05-13T17:35:01.108Z,72.051
2017-05-13T17:37:55.632Z,71.558
2017-05-13T17:40:50.250Z,71.576
2017-05-13T17:43:44.887Z,72.723
2017-05-13T17:46:39.488Z,73.569
2017-05-13T17:49:34.052Z,75.659
2017-05-13T17:52:28.648Z,74.092
2017-05-13T17:55:23.309Z,75.806
2017-05-13T17:58:18.154Z,76.768
2017-05-13T18:01:12.809Z,75.777
2017-05-13T18:04:07.407Z,74.455
2017-05-13T18:07:01.986Z,75.089
2017-05-13T18:09:56.573Z,76.454
2017-05-13T18:12:51.176Z,76.129
2017-05-13T18:15:45.876Z,76.555
2017-05-13T18:18:40.492Z,75.122
2017-05-13T18:21:35.164Z,73.740
2017-05-13T18:24:29.698Z,73.307
2017-05-13T18:27:24.335Z,75.837
2017-05-13T18:30:18.980Z,74.482
2017-05-13T18:33:13.552Z,74.976
2017-05-13T18:36:08.212Z,75.062
2017-05-13T18:39:02.808Z,75.258
2017-05-13T18:41:57.474Z,75.773
2017-05-13T18:44:53.736Z,75.713
2017-05-13T18:47:46.673Z,76.025
2017-05-13T18:50:41.798Z,75.648
2017-05-13T18:53:36.379Z,76.116
2017-05-13T18:56:30.880Z,76.710
2017-05-13T18:59:25.542Z,77.033
2017-05-13T19:02:20.212Z,77.637
2017-05-13T19:05:14.964Z,78.875
2017-05-13T19:08:09.559Z,77.443
2017-05-13T19:11:04.077Z,77.713
2017-05-13T19:13:58.647Z,77.348
2017-05-13T19:16:53.185Z,78.228
2017-05-13T19:19:47.692Z,78.186
2017-05-13T19:22:42.353Z,78.412
2017-05-13T19:25:36.988Z,78.460
2017-05-13T19:28:31.495Z,78.196
2017-05-13T19:31:26.101Z,78.937
2017-05-13T19:34:20.705Z,78.969
2017-05-13T19:37:15.319Z,79.379
2017-05-13T19:40:09.847Z,79.438
2017-05-13T19:43:04.365Z,79.856
2017-05-13T19:45:58.969Z,79.990
2017-05-13T19:48:53.499Z,79.974
2017-05-13T19:51:48.029Z,80.504
2017-05-13T19:54:42.589Z,80.936
2017-05-13T19:57:37.140Z,81.134
2017-05-13T20:00:31.525Z,81.206
2017-05-13T20:03:26.178Z,81.652
2017-05-13T20:06:20.703Z,81.742
2017-05-13T20:09:16.960Z,81.922
2017-05-13T20:12:09.708Z,81.962
2017-05-13T20:15:06.022Z,81.954
2017-05-13T20:17:58.948Z,82.291
2017-05-13T20:20:55.174Z,82.144
2017-05-13T20:23:48.063Z,82.170
2017-05-13T20:26:42.531Z,82.299
2017-05-13T20:29:37.032Z,82.499
2017-05-13T20:32:31.421Z,82.580
2017-05-13T20:35:27.733Z,82.735
2017-05-13T20:38:20.431Z,82.879
2017-05-13T20:41:14.877Z,82.786
2017-05-13T20:44:09.285Z,82.941
2017-05-13T20:47:03.787Z,82.663
2017-05-13T20:49:59.943Z,83.216
2017-05-13T20:52:52.691Z,83.188
2017-05-13T20:55:47.236Z,83.402
2017-05-13T20:58:41.639Z,83.376
2017-05-13T21:01:36.138Z,83.420
2017-05-13T21:04:32.480Z,83.322
2017-05-13T21:07:25.122Z,83.381
2017-05-13T21:10:19.628Z,83.383
2017-05-13T21:13:14.064Z,83.563
2017-05-13T21:16:08.528Z,83.768
2017-05-13T21:19:02.872Z,83.886
2017-05-13T21:21:57.422Z,83.981
2017-05-13T21:24:53.667Z,83.945
2017-05-13T21:27:46.280Z,84.125
2017-05-13T21:30:40.573Z,84.027
2017-05-13T21:33:35.080Z,84.332
2017-05-13T21:36:29.442Z,84.306
2017-05-13T21:39:23.913Z,84.079
2017-05-13T21:42:18.389Z,83.961
2017-05-13T21:45:12.864Z,84.301
2017-05-13T21:48:07.441Z,84.245
2017-05-13T21:51:01.886Z,84.776
2017-05-13T21:53:56.253Z,84.603
2017-05-13T21:56:50.792Z,84.489
2017-05-13T21:59:45.118Z,84.598
2017-05-13T22:02:39.583Z,84.554
2017-05-13T22:05:34.014Z,84.546
2017-05-13T22:08:28.427Z,84.461
2017-05-13T22:11:22.841Z,84.652
2017-05-13T22:14:17.223Z,84.970
2017-05-13T22:17:11.634Z,85.196
2017-05-13T22:20:06.097Z,85.259
2017-05-13T22:23:00.509Z,84.993
2017-05-13T22:25:55.001Z,85.084
2017-05-13T22:28:49.436Z,85.043
2017-05-13T22:31:43.925Z,85.399
2017-05-13T22:34:38.495Z,85.098
2017-05-13T22:37:32.776Z,85.744
2017-05-13T22:40:27.198Z,85.850
2017-05-13T22:43:21.630Z,85.840
2017-05-13T22:46:16.001Z,86.023
2017-05-13T22:49:10.388Z,86.099
2017-05-13T22:52:04.801Z,86.551
2017-05-13T22:54:59.217Z,86.660
2017-05-13T22:57:53.579Z,86.379
2017-05-13T23:00:48.016Z,86.760
2017-05-13T23:03:44.239Z,86.721
2017-05-13T23:06:37.403Z,86.737
2017-05-13T23:09:31.725Z,86.689
2017-05-13T23:12:26.156Z,86.716
2017-05-13T23:15:20.464Z,86.795
2017-05-13T23:18:15.647Z,86.818
2017-05-13T23:21:09.119Z,86.948
2017-05-13T23:24:03.558Z,86.809
2017-05-13T23:26:57.953Z,86.979
2017-05-13T23:29:52.479Z,86.979
2017-05-13T23:32:46.961Z,87.057
2017-05-13T23:35:41.248Z,86.988
2017-05-13T23:38:35.609Z,87.150
2017-05-13T23:41:30.181Z,87.208
2017-05-13T23:44:24.639Z,87.083
2017-05-13T23:47:19.106Z,87.162
2017-05-13T23:50:13.558Z,87.294
2017-05-13T23:53:08.006Z,87.307
2017-05-13T23:56:02.452Z,87.298
2017-05-13T23:58:57.027Z,87.328
